Costessey, United Kingdom
Current Conditions -  °F | °C
As of 5:50 PM on Saturday 25 Oct 2014 (Local Time) from EGSH Reporting Station
Broken Clouds Broken Clouds  
Wind Chill: 55°   Ceiling: 4500
Heat Index: 55°   Visibility: 6mi
Dew Point: 48°   Wind: 6mph
Humidity: 77%   Direction: 210°SSW
Pressure: 30.03"   Gusts: NA
Location:  52.66°N, 1.21°E
Report Text: EGSH 251650Z 21005KT 180V240 9999 SCT030 BKN045 13/09 Q1017 NOSIG
Loading
Personal Weather Stations






























Interactive Weather Map
Tropical Storm Tracking
New forecast layout! Learn more

10-Day Weather Forecast

Advertisements
Track Severe Weather on mobile